Time;durP1;ratioP1;P1;durP2;ratioP2;P2;SDS_P1;SDS_P2;PMS_P1;PMS_P2;Temp;Humidity;BMP_temperature;BMP_pressure;BME280_temperature;BME280_humidity;BME280_pressure;Samples;Min_cycle;Max_cycle;Signal;HPM_P1;HPM_P2
2022/01/13 00:04:55;;;;;;;79.07;30.15;;;;;;;-0.72;100.00;100870.13;4316394;81;43746;-77
2022/01/13 00:10:57;;;;;;;78.45;30.43;;;;;;;-0.46;100.00;100848.84;4243557;83;43757;-78
2022/01/13 00:29:26;;;;;;;69.53;28.05;;;;;;;-0.21;100.00;100843.52;4198643;83;44139;-78
2022/01/13 00:35:24;;;;;;;67.40;28.50;;;;;;;-0.24;100.00;100830.55;4197623;83;28539;-78
2022/01/13 00:41:29;;;;;;;65.95;27.40;;;;;;;-0.04;100.00;100829.87;4201601;83;43446;-77
2022/01/13 00:47:30;;;;;;;68.07;25.77;;;;;;;-0.05;100.00;100836.59;4160605;84;42912;-79
2022/01/13 00:53:31;;;;;;;71.82;28.27;;;;;;;-0.07;100.00;100838.02;4160936;83;44145;-80
2022/01/13 00:59:33;;;;;;;70.35;27.42;;;;;;;-0.12;100.00;100828.75;4140990;83;44101;-79
2022/01/13 01:05:35;;;;;;;67.40;28.02;;;;;;;-0.14;100.00;100832.86;4153767;84;44141;-77
2022/01/13 01:11:37;;;;;;;70.92;28.52;;;;;;;0.14;100.00;100858.48;4202543;83;44108;-78
2022/01/13 01:17:45;;;;;;;72.60;28.98;;;;;;;0.10;100.00;100857.87;4238679;82;44091;-79
2022/01/13 01:29:55;;;;;;;76.75;29.67;;;;;;;0.02;100.00;100862.08;4273465;81;43715;-77
2022/01/13 01:35:56;;;;;;;74.80;29.20;;;;;;;0.06;100.00;100864.88;4261041;82;44096;-82
2022/01/13 01:41:57;;;;;;;77.50;29.75;;;;;;;0.02;100.00;100864.26;4259920;81;43771;-81
2022/01/13 01:48:03;;;;;;;72.60;28.98;;;;;;;0.09;100.00;100868.59;4263847;82;44149;-80
2022/01/13 01:54:03;;;;;;;73.37;28.55;;;;;;;0.24;100.00;100865.25;4275149;81;44121;-81
2022/01/13 02:00:10;;;;;;;65.03;25.92;;;;;;;0.24;100.00;100846.23;4290660;81;42915;-83
2022/01/13 02:06:13;;;;;;;66.60;25.37;;;;;;;0.37;100.00;100853.24;4296853;81;42936;-83
2022/01/13 02:12:26;;;;;;;56.15;24.67;;;;;;;0.51;100.00;100854.78;4222470;83;44167;-81
2022/01/13 02:18:20;;;;;;;60.40;24.65;;;;;;;0.55;100.00;100839.86;4256384;83;43587;-81
2022/01/13 02:24:21;;;;;;;55.83;21.80;;;;;;;0.64;100.00;100837.45;4277646;81;44133;-79
2022/01/13 02:30:23;;;;;;;55.43;21.20;;;;;;;0.73;100.00;100886.18;4233924;82;44115;-78
2022/01/13 02:36:25;;;;;;;48.05;19.92;;;;;;;0.64;100.00;100859.95;4236047;82;43775;-78
2022/01/13 02:42:28;;;;;;;49.60;20.08;;;;;;;0.76;100.00;100839.63;4209095;83;43627;-79
2022/01/13 02:48:30;;;;;;;43.13;18.45;;;;;;;0.80;100.00;100810.13;4199972;83;43801;-81
2022/01/13 02:54:32;;;;;;;43.13;18.45;;;;;;;0.65;100.00;100792.81;4238406;83;43326;-81
2022/01/13 03:00:33;;;;;;;41.48;18.07;;;;;;;0.88;100.00;100771.10;4237908;82;44466;-79
2022/01/13 03:06:39;;;;;;;39.18;17.67;;;;;;;0.89;100.00;100797.94;4236677;82;44446;-80
2022/01/13 03:12:44;;;;;;;43.42;18.17;;;;;;;0.99;100.00;100804.67;4237291;82;43756;-78
2022/01/13 03:18:45;;;;;;;36.08;17.42;;;;;;;1.05;100.00;100824.52;4239491;82;44458;-80
2022/01/13 03:24:47;;;;;;;36.15;16.42;;;;;;;1.18;100.00;100827.84;4246906;82;44418;-78
2022/01/13 03:30:48;;;;;;;43.70;17.48;;;;;;;1.21;100.00;100815.66;4287860;81;43238;-79
2022/01/13 03:36:49;;;;;;;35.40;17.15;;;;;;;1.28;100.00;100812.52;4290031;81;44488;-79
2022/01/13 03:42:53;;;;;;;33.55;14.20;;;;;;;1.31;100.00;100802.51;4291876;81;44144;-80
2022/01/13 03:48:55;;;;;;;34.23;14.55;;;;;;;1.28;100.00;100787.34;4294356;81;44164;-78
2022/01/13 03:55:38;;;;;;;30.57;13.85;;;;;;;1.47;100.00;100780.01;4293901;81;43423;-79
2022/01/13 04:02:12;;;;;;;26.93;12.68;;;;;;;1.32;100.00;100777.69;4294835;81;28497;-79
2022/01/13 04:08:15;;;;;;;25.20;12.03;;;;;;;1.53;100.00;100806.02;4293566;81;43755;-77
2022/01/13 04:14:19;;;;;;;26.70;12.15;;;;;;;1.62;100.00;100802.59;4294589;81;43265;-78
2022/01/13 04:20:19;;;;;;;28.20;11.83;;;;;;;1.67;100.00;100796.41;4295343;81;43443;-80
2022/01/13 04:26:27;;;;;;;23.83;11.50;;;;;;;1.67;100.00;100788.45;4255781;82;43342;-84
2022/01/13 04:32:24;;;;;;;28.40;12.00;;;;;;;1.88;100.00;100799.54;4207014;83;43414;-81
2022/01/13 04:38:26;;;;;;;27.95;12.13;;;;;;;1.80;100.00;100786.08;4208812;83;43438;-79
2022/01/13 04:44:27;;;;;;;22.55;10.95;;;;;;;1.88;100.00;100782.30;4203551;83;43718;-78
2022/01/13 04:50:29;;;;;;;28.80;11.65;;;;;;;1.80;100.00;100789.59;4288349;81;43443;-78
2022/01/13 04:56:39;;;;;;;27.65;11.20;;;;;;;1.87;100.00;100767.83;4240191;82;43464;-79
2022/01/13 05:02:34;;;;;;;29.82;12.58;;;;;;;1.75;100.00;100781.17;4237527;82;28507;-79
2022/01/13 05:08:36;;;;;;;27.52;11.63;;;;;;;1.87;100.00;100789.91;4240241;82;28531;-78
2022/01/13 05:14:37;;;;;;;27.27;11.60;;;;;;;1.92;100.00;100784.20;4237412;82;43416;-81
2022/01/13 05:20:41;;;;;;;28.40;11.85;;;;;;;1.92;100.00;100778.39;4238286;82;43413;-78
2022/01/13 05:26:42;;;;;;;27.02;12.00;;;;;;;1.85;100.00;100779.06;4219707;83;43350;-79
2022/01/13 05:32:43;;;;;;;29.52;11.78;;;;;;;1.85;100.00;100763.14;4238005;82;43436;-79
2022/01/13 05:38:44;;;;;;;30.23;12.53;;;;;;;1.70;100.00;100786.03;4237836;82;43827;-79
2022/01/13 05:44:47;;;;;;;30.40;12.93;;;;;;;1.89;100.00;100772.03;4238618;82;28550;-78
2022/01/13 05:50:48;;;;;;;33.08;13.35;;;;;;;1.84;100.00;100760.14;4237795;82;44123;-80
2022/01/13 05:56:49;;;;;;;30.85;12.55;;;;;;;1.87;100.00;100762.05;4236274;82;43429;-84
2022/01/13 06:02:52;;;;;;;34.85;13.10;;;;;;;1.79;100.00;100769.81;4231872;82;44126;-73
2022/01/13 06:08:54;;;;;;;31.80;13.55;;;;;;;2.03;100.00;100766.88;4238293;82;44055;-83
2022/01/13 06:14:55;;;;;;;32.42;13.43;;;;;;;1.93;100.00;100769.49;4238124;82;44095;-76
2022/01/13 06:20:56;;;;;;;31.12;12.73;;;;;;;2.11;100.00;100770.18;4236678;82;44127;-76
2022/01/13 06:26:57;;;;;;;33.10;14.87;;;;;;;2.17;100.00;100763.03;4236250;82;44586;-76
2022/01/13 06:32:58;;;;;;;33.60;14.10;;;;;;;2.04;100.00;100755.79;4233137;82;44146;-75
2022/01/13 06:39:00;;;;;;;33.65;13.30;;;;;;;2.09;100.00;100757.07;4235126;82;28550;-77
2022/01/13 06:45:01;;;;;;;32.78;15.28;;;;;;;2.04;100.00;100755.28;4236889;82;28547;-78
2022/01/13 06:51:02;;;;;;;35.68;14.73;;;;;;;2.17;100.00;100752.89;4222497;82;44489;-76
2022/01/13 06:57:04;;;;;;;38.10;14.28;;;;;;;2.27;100.00;100770.19;4224742;83;28649;-77
2022/01/13 07:03:06;;;;;;;32.23;13.55;;;;;;;2.39;100.00;100762.47;4220766;82;28522;-76
2022/01/13 07:09:14;;;;;;;28.47;12.47;;;;;;;2.22;100.00;100766.61;4209114;82;28523;-77
2022/01/13 07:15:16;;;;;;;29.10;12.73;;;;;;;2.30;100.00;100753.52;4216603;82;28487;-75
2022/01/13 07:21:19;;;;;;;27.93;12.53;;;;;;;2.37;100.00;100755.96;4220500;82;28513;-74
2022/01/13 07:27:20;;;;;;;30.43;13.05;;;;;;;2.33;100.00;100747.07;4225746;82;28528;-75
2022/01/13 07:33:22;;;;;;;25.35;11.45;;;;;;;2.60;100.00;100749.13;4235157;82;28564;-73
2022/01/13 07:39:23;;;;;;;26.07;11.15;;;;;;;2.67;100.00;100743.25;4236208;82;28511;-74
2022/01/13 07:45:25;;;;;;;23.65;10.70;;;;;;;2.69;100.00;100742.62;4280558;81;28538;-76
2022/01/13 07:51:26;;;;;;;21.45;10.18;;;;;;;2.70;100.00;100761.56;4241979;82;28523;-78
2022/01/13 07:57:27;;;;;;;23.57;10.80;;;;;;;2.75;100.00;100756.19;4293190;81;28548;-78
2022/01/13 08:03:29;;;;;;;22.93;10.93;;;;;;;2.81;100.00;100738.85;4286270;81;28496;-80
2022/01/13 08:09:30;;;;;;;20.25;9.33;;;;;;;2.78;100.00;100706.78;4292340;81;28510;-77
2022/01/13 08:15:34;;;;;;;22.70;9.95;;;;;;;3.09;100.00;100686.38;4289726;81;28533;-78
2022/01/13 08:21:35;;;;;;;19.57;9.25;;;;;;;2.98;100.00;100683.36;4295230;81;28532;-78
2022/01/13 08:27:38;;;;;;;19.90;9.30;;;;;;;2.96;100.00;100670.70;4249150;81;28535;-78
2022/01/13 08:33:39;;;;;;;19.20;8.15;;;;;;;3.24;100.00;100676.96;4173507;83;28524;-79
2022/01/13 08:39:44;;;;;;;19.10;8.65;;;;;;;3.39;100.00;100684.00;4229285;82;28543;-80
2022/01/13 08:45:44;;;;;;;19.73;8.85;;;;;;;3.43;100.00;100683.22;4236694;82;28527;-79
2022/01/13 08:51:45;;;;;;;22.30;8.50;;;;;;;3.62;100.00;100669.88;4174485;83;28558;-78
2022/01/13 08:57:46;;;;;;;23.18;10.90;;;;;;;3.68;100.00;100690.21;4257247;82;28613;-81
2022/01/13 09:03:48;;;;;;;23.90;10.65;;;;;;;4.00;100.00;100680.98;4235338;82;28557;-81
2022/01/13 09:09:49;;;;;;;24.43;10.23;;;;;;;4.06;100.00;100665.77;4236245;82;28547;-79
2022/01/13 09:15:58;;;;;;;26.50;11.12;;;;;;;4.01;100.00;100664.02;4173916;83;28461;-79
2022/01/13 09:21:55;;;;;;;28.07;12.03;;;;;;;3.92;100.00;100660.44;4162220;83;28551;-82
2022/01/13 09:27:56;;;;;;;26.62;12.23;;;;;;;3.89;100.00;100640.78;4191499;83;28486;-79
2022/01/13 09:33:58;;;;;;;31.65;14.05;;;;;;;3.75;100.00;100645.61;4236580;84;28611;-80
2022/01/13 09:40:00;;;;;;;35.80;15.48;;;;;;;3.94;100.00;100669.61;4240919;82;28514;-78
2022/01/13 09:46:01;;;;;;;35.55;14.90;;;;;;;4.05;100.00;100660.09;4246580;82;28523;-80
2022/01/13 09:52:03;;;;;;;30.97;14.87;;;;;;;4.11;100.00;100658.16;4244239;82;28519;-79
2022/01/13 09:58:10;;;;;;;33.95;15.53;;;;;;;4.21;100.00;100647.95;4246416;83;28519;-78
2022/01/13 10:04:07;;;;;;;43.92;19.07;;;;;;;4.20;100.00;100632.48;4246662;82;28549;-81
2022/01/13 10:10:14;;;;;;;34.73;16.67;;;;;;;4.37;100.00;100641.95;4239296;82;28564;-78
2022/01/13 10:16:26;;;;;;;36.65;17.45;;;;;;;4.28;100.00;100620.59;4244452;83;28490;-79
2022/01/13 10:22:33;;;;;;;35.98;16.85;;;;;;;4.57;100.00;100630.68;4217465;83;29432;-79
2022/01/13 10:28:34;;;;;;;37.08;16.77;;;;;;;4.92;100.00;100651.63;4222369;82;28505;-78
2022/01/13 10:34:40;;;;;;;32.25;13.90;;;;;;;4.93;100.00;100634.63;4209612;83;28513;-80
2022/01/13 10:40:42;;;;;;;32.98;15.13;;;;;;;4.87;100.00;100600.11;4213122;83;28527;-82
2022/01/13 10:47:04;;;;;;;36.03;16.10;;;;;;;4.92;100.00;100608.98;4213518;82;28532;-79
2022/01/13 10:53:17;;;;;;;35.08;14.90;;;;;;;4.78;100.00;100594.38;4213780;83;28497;-79
2022/01/13 10:59:34;;;;;;;35.15;14.95;;;;;;;5.06;100.00;100590.77;4225818;82;28528;-79
2022/01/13 11:05:52;;;;;;;30.50;14.60;;;;;;;5.14;100.00;100593.45;4203597;83;28526;-77
2022/01/13 11:11:59;;;;;;;31.02;14.10;;;;;;;4.94;100.00;100573.67;4206366;82;28566;-78
2022/01/13 11:18:01;;;;;;;33.48;14.95;;;;;;;4.84;100.00;100588.44;4201085;82;28536;-78
2022/01/13 11:24:02;;;;;;;33.42;14.13;;;;;;;4.98;100.00;100571.53;4211595;82;28585;-77
2022/01/13 11:30:12;;;;;;;30.82;13.95;;;;;;;4.91;100.00;100555.33;4207205;82;28520;-78
2022/01/13 11:36:14;;;;;;;31.12;13.80;;;;;;;4.81;100.00;100538.13;4206430;82;28581;-78
2022/01/13 11:42:16;;;;;;;28.87;13.28;;;;;;;4.99;100.00;100534.06;4218782;83;28547;-79
2022/01/13 11:48:30;;;;;;;29.10;14.03;;;;;;;5.14;100.00;100530.31;4236687;82;28501;-78
2022/01/13 11:54:34;;;;;;;30.12;12.88;;;;;;;5.46;100.00;100519.94;4290113;81;28552;-79
2022/01/13 12:00:37;;;;;;;29.10;13.43;;;;;;;5.46;100.00;100511.94;4187051;82;28531;-78
2022/01/13 12:06:51;;;;;;;27.00;12.60;;;;;;;5.88;100.00;100494.22;4209977;82;28590;-77
2022/01/13 12:12:53;;;;;;;27.25;11.88;;;;;;;6.00;100.00;100477.39;4216903;82;28489;-81
2022/01/13 12:19:15;;;;;;;26.77;12.25;;;;;;;5.91;100.00;100453.02;4262045;82;28532;-78
2022/01/13 12:25:07;;;;;;;28.75;12.60;;;;;;;6.09;100.00;100459.56;4267084;81;28541;-78
2022/01/13 12:31:27;;;;;;;25.83;11.73;;;;;;;6.10;100.00;100456.73;4239337;82;28537;-79
2022/01/13 12:37:30;;;;;;;27.65;12.18;;;;;;;6.06;100.00;100461.23;4226044;82;50184;-79
2022/01/13 12:49:37;;;;;;;23.05;10.98;;;;;;;6.11;100.00;100431.70;4235545;82;28482;-78
2022/01/13 12:55:43;;;;;;;23.73;10.63;;;;;;;6.02;100.00;100435.86;4233728;82;28556;-78
2022/01/13 13:01:44;;;;;;;;;;;;;;;6.18;100.00;100416.32;4239597;82;28581;-79
2022/01/13 13:07:46;;;;;;;25.97;11.50;;;;;;;6.05;100.00;100405.66;4191399;83;20255;-79
2022/01/13 13:13:50;;;;;;;23.77;10.23;;;;;;;6.07;100.00;100386.80;4239114;82;28600;-79
2022/01/13 13:19:50;;;;;;;27.93;11.60;;;;;;;5.86;100.00;100392.94;4237317;82;28529;-77
2022/01/13 13:25:55;;;;;;;23.07;9.83;;;;;;;6.07;100.00;100377.46;4243130;82;28479;-80
2022/01/13 13:31:57;;;;;;;24.47;10.45;;;;;;;5.72;100.00;100359.73;4242941;82;28479;-79
2022/01/13 13:37:58;;;;;;;24.72;10.43;;;;;;;5.91;100.00;100365.75;4236747;82;28587;-78
2022/01/13 13:44:00;;;;;;;27.80;10.53;;;;;;;5.79;100.00;100363.94;4284738;81;28523;-77
2022/01/13 13:50:02;;;;;;;21.87;10.13;;;;;;;5.78;100.00;100381.44;4313273;81;28599;-79
2022/01/13 13:56:05;;;;;;;25.30;10.95;;;;;;;5.62;100.00;100358.25;4271931;81;28599;-79
2022/01/13 14:02:20;;;;;;;22.48;10.70;;;;;;;5.78;100.00;100364.09;4282471;81;28561;-78
2022/01/13 14:08:21;;;;;;;22.07;10.10;;;;;;;5.83;100.00;100360.41;4264554;82;28531;-76
2022/01/13 14:14:22;;;;;;;23.32;10.63;;;;;;;5.69;100.00;100352.59;4264557;82;28507;-80
2022/01/13 14:20:28;;;;;;;24.23;11.53;;;;;;;5.72;100.00;100350.91;4268498;82;29728;-78
2022/01/13 14:26:34;;;;;;;25.48;11.70;;;;;;;5.68;100.00;100353.59;4292317;81;28540;-77
2022/01/13 14:32:35;;;;;;;24.95;11.73;;;;;;;5.47;100.00;100353.58;4288862;81;28560;-81
2022/01/13 14:38:53;;;;;;;25.68;11.15;;;;;;;5.60;100.00;100357.07;4288141;81;28526;-78
2022/01/13 14:45:22;;;;;;;22.95;11.03;;;;;;;5.71;100.00;100358.08;4287622;81;28620;-77
2022/01/13 14:51:25;;;;;;;26.55;11.05;;;;;;;5.74;100.00;100351.58;4286804;81;28564;-76
2022/01/13 14:57:27;;;;;;;25.77;12.47;;;;;;;5.69;100.00;100352.08;4286907;81;28486;-77
2022/01/13 15:03:28;;;;;;;23.35;10.43;;;;;;;5.71;100.00;100359.92;4288754;81;28506;-77
2022/01/13 15:09:31;;;;;;;22.22;10.18;;;;;;;5.82;100.00;100370.27;4286943;81;28565;-78
2022/01/13 15:15:33;;;;;;;21.55;10.40;;;;;;;5.90;100.00;100352.59;4281075;81;28529;-77
2022/01/13 15:21:34;;;;;;;26.10;12.18;;;;;;;6.07;100.00;100363.59;4286753;81;28542;-78
2022/01/13 15:27:37;;;;;;;25.90;12.53;;;;;;;5.97;100.00;100402.46;4242986;82;28539;-79
2022/01/13 15:33:38;;;;;;;32.70;14.18;;;;;;;5.54;100.00;100436.45;4238751;82;28563;-77
2022/01/13 15:39:40;;;;;;;30.60;14.68;;;;;;;5.54;100.00;100431.12;4239438;82;28556;-77
2022/01/13 15:45:42;;;;;;;34.33;14.53;;;;;;;5.46;100.00;100439.09;4238522;82;28558;-78
2022/01/13 15:51:44;;;;;;;33.23;14.87;;;;;;;5.51;100.00;100439.42;4237871;82;28530;-78
2022/01/13 15:57:45;;;;;;;34.13;15.65;;;;;;;5.59;100.00;100448.78;4237925;82;28451;-78
2022/01/13 16:03:49;;;;;;;31.55;14.15;;;;;;;5.40;100.00;100449.41;4240388;82;28543;-78
2022/01/13 16:09:50;;;;;;;27.70;12.73;;;;;;;5.27;100.00;100437.89;4239308;82;28905;-77
2022/01/13 16:15:51;;;;;;;24.67;11.85;;;;;;;5.37;100.00;100428.91;4239019;82;28566;-77
2022/01/13 16:21:53;;;;;;;30.82;13.50;;;;;;;5.28;100.00;100438.22;4237459;82;28526;-77
2022/01/13 16:27:54;;;;;;;23.42;11.80;;;;;;;5.30;100.00;100406.88;4244641;82;28534;-77
2022/01/13 16:33:58;;;;;;;24.52;11.90;;;;;;;5.15;100.00;100402.67;4256901;82;28494;-78
2022/01/13 16:40:00;;;;;;;24.00;11.97;;;;;;;5.18;100.00;100390.86;4251201;82;28619;-77
2022/01/13 16:46:01;;;;;;;25.50;12.03;;;;;;;5.43;100.00;100392.23;4250000;82;28530;-78
2022/01/13 16:52:03;;;;;;;27.07;12.37;;;;;;;5.24;100.00;100375.52;4250557;82;28472;-78
2022/01/13 16:58:06;;;;;;;32.48;14.10;;;;;;;5.23;100.00;100367.19;4250421;82;28530;-79
2022/01/13 17:04:08;;;;;;;28.90;14.07;;;;;;;4.94;100.00;100355.11;4287031;81;28509;-80
2022/01/13 17:10:09;;;;;;;33.95;15.55;;;;;;;4.86;100.00;100347.11;4256881;82;28506;-79
2022/01/13 17:16:11;;;;;;;34.45;16.40;;;;;;;5.01;100.00;100360.65;4295551;81;28514;-79
2022/01/13 17:22:12;;;;;;;29.35;14.23;;;;;;;4.93;100.00;100367.28;4250140;82;28595;-77
2022/01/13 17:28:13;;;;;;;32.55;16.07;;;;;;;4.81;100.00;100376.91;4238399;82;28548;-83
2022/01/13 17:34:15;;;;;;;36.17;16.90;;;;;;;4.82;100.00;100389.71;4174812;83;28581;-82
2022/01/13 17:40:16;;;;;;;33.10;15.15;;;;;;;4.82;100.00;100377.72;4156099;83;28513;-80
2022/01/13 17:46:17;;;;;;;32.88;15.93;;;;;;;4.89;100.00;100402.74;4168833;83;28506;-79
2022/01/13 17:52:20;;;;;;;31.75;15.32;;;;;;;4.81;100.00;100407.55;4170702;84;28464;-81
2022/01/13 17:58:23;;;;;;;33.30;15.45;;;;;;;4.87;100.00;100411.41;4175541;83;28520;-80
2022/01/13 18:04:24;;;;;;;28.83;14.63;;;;;;;4.62;100.00;100431.75;4170309;85;28540;-80
2022/01/13 18:10:26;;;;;;;31.50;14.87;;;;;;;4.92;100.00;100420.25;4176790;83;28509;-81
2022/01/13 18:16:28;;;;;;;34.20;14.58;;;;;;;5.05;100.00;100403.78;4175878;83;28510;-79
2022/01/13 18:22:30;;;;;;;27.95;14.15;;;;;;;4.86;100.00;100425.21;4159047;84;28559;-79
2022/01/13 18:28:32;;;;;;;28.52;13.58;;;;;;;5.01;100.00;100408.63;4226968;81;28563;-78
2022/01/13 18:34:34;;;;;;;24.05;12.13;;;;;;;5.15;100.00;100400.48;4274471;81;28510;-81
2022/01/13 18:40:43;;;;;;;25.43;12.65;;;;;;;5.38;100.00;100410.58;4277949;81;28538;-78
2022/01/13 18:46:50;;;;;;;24.27;11.83;;;;;;;5.29;100.00;100412.37;4284334;81;28531;-80
2022/01/13 18:52:51;;;;;;;23.50;12.05;;;;;;;5.51;100.00;100382.92;4275724;82;28505;-83
2022/01/13 18:58:56;;;;;;;24.55;11.73;;;;;;;5.60;100.00;100360.25;4276922;81;28530;-82
2022/01/13 19:04:57;;;;;;;24.07;11.48;;;;;;;5.61;100.00;100371.27;4278443;83;28498;-81
2022/01/13 19:10:59;;;;;;;25.57;11.63;;;;;;;5.65;100.00;100368.09;4280613;81;28521;-85
2022/01/13 19:17:09;;;;;;;22.55;11.25;;;;;;;5.56;100.00;100365.08;4271049;82;28538;-81
2022/01/13 19:23:08;;;;;;;25.35;12.18;;;;;;;5.61;100.00;100372.59;4273002;83;28539;-77
2022/01/13 19:29:10;;;;;;;17.32;9.48;;;;;;;5.61;100.00;100387.27;4290901;81;28552;-82
2022/01/13 19:35:14;;;;;;;19.02;9.95;;;;;;;5.52;100.00;100393.07;4264192;82;28565;-84
2022/01/13 19:41:16;;;;;;;22.70;10.28;;;;;;;5.60;100.00;100387.75;4251427;82;28507;-80
2022/01/13 19:47:17;;;;;;;19.20;9.40;;;;;;;5.51;100.00;100398.92;4263809;82;28513;-76
2022/01/13 19:53:19;;;;;;;21.90;9.95;;;;;;;5.68;100.00;100396.29;4264008;82;28527;-80
2022/01/13 19:59:20;;;;;;;22.58;10.75;;;;;;;5.75;100.00;100410.62;4263082;82;28490;-79
2022/01/13 20:05:21;;;;;;;19.98;9.73;;;;;;;5.48;100.00;100404.59;4264052;82;28573;-73
2022/01/13 20:11:25;;;;;;;19.77;9.80;;;;;;;5.43;100.00;100395.75;4263118;82;28553;-82
2022/01/13 20:17:28;;;;;;;20.23;10.28;;;;;;;5.46;100.00;100416.42;4266913;82;28539;-82
2022/01/13 20:23:30;;;;;;;20.90;9.63;;;;;;;5.67;100.00;100371.91;4238468;84;28569;-80
2022/01/13 20:29:31;;;;;;;21.77;10.50;;;;;;;5.57;100.00;100368.08;4231677;84;28511;-80
2022/01/13 20:35:36;;;;;;;27.17;12.70;;;;;;;5.52;100.00;100383.73;4241230;84;28476;-79
2022/01/13 20:41:38;;;;;;;21.87;10.40;;;;;;;5.34;100.00;100386.06;4241274;82;28520;-79
2022/01/13 20:47:41;;;;;;;21.95;10.93;;;;;;;5.51;100.00;100393.59;4255396;82;28522;-79
2022/01/13 20:53:45;;;;;;;22.50;11.48;;;;;;;5.58;100.00;100383.94;4245284;82;28487;-75
2022/01/13 20:59:46;;;;;;;23.57;11.25;;;;;;;5.54;100.00;100377.76;4218825;82;28501;-76
2022/01/13 21:05:49;;;;;;;22.77;11.05;;;;;;;5.49;100.00;100368.06;4235447;83;28590;-77
2022/01/13 21:11:50;;;;;;;22.58;11.40;;;;;;;5.55;100.00;100358.90;4238140;82;28532;-78
2022/01/13 21:17:53;;;;;;;23.12;11.18;;;;;;;5.62;100.00;100345.72;4259161;82;28590;-79
2022/01/13 21:23:56;;;;;;;22.20;10.50;;;;;;;5.51;100.00;100344.72;4215597;83;28555;-78
2022/01/13 21:29:59;;;;;;;23.35;11.73;;;;;;;5.43;100.00;100326.89;4182425;83;28508;-76
2022/01/13 21:36:01;;;;;;;24.63;12.23;;;;;;;5.52;100.00;100331.23;4153260;84;28556;-79
2022/01/13 21:42:03;;;;;;;23.42;11.43;;;;;;;5.34;100.00;100315.88;4162994;84;28513;-80
2022/01/13 21:48:05;;;;;;;23.47;11.28;;;;;;;5.38;100.00;100305.22;4192285;84;28530;-79
2022/01/13 21:54:08;;;;;;;26.50;12.55;;;;;;;5.39;100.00;100291.70;4156684;84;28543;-81
2022/01/13 22:00:12;;;;;;;21.35;11.03;;;;;;;5.44;100.00;100285.88;4176133;85;28509;-78
2022/01/13 22:06:13;;;;;;;23.95;10.43;;;;;;;5.61;100.00;100289.36;4167149;84;28514;-78
2022/01/13 22:12:17;;;;;;;24.18;10.85;;;;;;;5.52;100.00;100269.02;4168656;84;28552;-79
2022/01/13 22:18:18;;;;;;;25.12;11.93;;;;;;;5.43;100.00;100253.53;4175009;84;28537;-78
2022/01/13 22:24:19;;;;;;;21.93;10.30;;;;;;;5.30;100.00;100246.87;4169900;84;28986;-81
2022/01/13 22:30:21;;;;;;;23.52;10.82;;;;;;;5.25;100.00;100263.86;4199569;82;28542;-79
2022/01/13 22:36:22;;;;;;;23.05;12.10;;;;;;;5.17;100.00;100261.20;4213775;81;28508;-81
2022/01/13 22:42:24;;;;;;;21.45;10.40;;;;;;;5.29;100.00;100263.03;4265285;81;28538;-80
2022/01/13 22:48:27;;;;;;;26.70;12.15;;;;;;;5.41;100.00;100261.69;4276591;81;28501;-80
2022/01/13 22:54:28;;;;;;;25.50;12.90;;;;;;;5.07;100.00;100249.87;4298175;81;28540;-77
2022/01/13 23:00:49;;;;;;;27.45;12.33;;;;;;;5.39;100.00;100214.35;4296202;81;28578;-78
2022/01/13 23:06:50;;;;;;;27.32;13.48;;;;;;;5.13;100.00;100195.87;4292742;81;28536;-78
2022/01/13 23:12:51;;;;;;;27.93;12.98;;;;;;;5.07;100.00;100159.23;4290968;81;28565;-80
2022/01/13 23:25:18;;;;;;;27.10;12.98;;;;;;;5.23;100.00;100158.39;4287092;81;28547;-78
2022/01/13 23:31:19;;;;;;;27.37;12.33;;;;;;;5.28;100.00;100133.37;4290169;81;28617;-79
2022/01/13 23:37:21;;;;;;;24.07;11.68;;;;;;;5.22;100.00;100151.39;4289758;81;28570;-79
2022/01/13 23:43:24;;;;;;;24.00;11.15;;;;;;;5.40;100.00;100140.52;4286263;81;28509;-77
2022/01/13 23:49:26;;;;;;;22.48;10.53;;;;;;;5.21;100.00;100153.73;4273300;81;28542;-78
2022/01/13 23:55:27;;;;;;;25.88;12.18;;;;;;;5.35;100.00;100155.70;4289278;81;28508;-80
